»·PEaware :: SWA5414 KSAN-KTUS

SWA5414 :: KSAN-KTUS

FLIGHT INFORMATION

Flight Status: Arrived
Operator:
Southwest Airlines
More flights by this operator :: More flights under this callsign
Pilot: David F. (17152)
Aircraft: BOEING 737-800
(B738)
More flights by this aircraft type
Origin: KSAN San Diego Intl-Lindbergh
United States
Destination: KTUS Tucson Intl
United States
More flights between these airports :: More routes between these airports
Route: +ZZOOO2 IPL J2 GBN DINGO5
File this flight plan on PilotEdge
Remarks: RMK / SIMBRIEF
Altitude:
(Current/Filed)
35,000ft
Speed:
(Current/Filed)
459kts
Departed: 13-Sep-20 05:18 PM
Arrived: 13-Sep-20 06:20 PM
Distance/Time
Traveled:
319nm/1:02
Distance/Time
To Go:
Arrived

Flight Plot

Page will automatically refresh every two minutes.

Flight plan parsing failed; only flown route is shown


Map Options




Map Legend


Flown Route
Filed Route
Departure Airport
Arrival Airport
Navaid (VOR, NDB)
Fix

Horizontal Profiles

Position Reports

Time Latitude Longitude Heading Altitude Ground
Speed
13-Sep-20 16:46 32.732556 -117.195479 0 26ft 0kts
13-Sep-20 16:47 32.732556 -117.195479 311 26ft 0kts
13-Sep-20 16:48 32.732556 -117.195479 311 26ft 0kts
13-Sep-20 16:49 32.732556 -117.195479 311 26ft 0kts
13-Sep-20 16:50 32.732556 -117.195479 311 26ft 0kts
13-Sep-20 16:51 32.732556 -117.195479 311 26ft 0kts
13-Sep-20 16:52 32.732556 -117.195479 311 26ft 0kts
13-Sep-20 16:53 32.732556 -117.195479 311 26ft 0kts
13-Sep-20 16:54 32.732556 -117.195479 311 26ft 0kts
13-Sep-20 16:55 32.732556 -117.195479 311 26ft 0kts
13-Sep-20 16:56 32.732556 -117.195479 311 26ft 0kts
13-Sep-20 16:57 32.732556 -117.195479 311 26ft 0kts
13-Sep-20 16:58 32.732556 -117.195479 311 26ft 0kts
13-Sep-20 17:00 32.732556 -117.195479 311 26ft 0kts
13-Sep-20 17:01 32.732556 -117.195479 311 26ft 0kts
13-Sep-20 17:02 32.732556 -117.195479 311 26ft 0kts
13-Sep-20 17:03 32.732389 -117.195252 311 26ft 2kts
13-Sep-20 17:04 32.732052 -117.194895 28 25ft 1kts
13-Sep-20 17:05 32.732004 -117.194920 17 25ft 0kts
13-Sep-20 17:06 32.732004 -117.194920 17 25ft 0kts
13-Sep-20 17:07 32.732393 -117.194725 26 25ft 2kts
13-Sep-20 17:08 32.732475 -117.194677 26 25ft 0kts
13-Sep-20 17:09 32.732723 -117.194524 28 25ft 0kts
13-Sep-20 17:10 32.732958 -117.194371 28 25ft 0kts
13-Sep-20 17:11 32.733403 -117.193380 103 26ft 11kts
13-Sep-20 17:12 32.732177 -117.188255 106 25ft 19kts
13-Sep-20 17:13 32.730668 -117.182010 105 24ft 19kts
13-Sep-20 17:14 32.729523 -117.177261 106 24ft 8kts
13-Sep-20 17:15 32.729487 -117.176875 81 24ft 0kts
13-Sep-20 17:16 32.729487 -117.176874 81 24ft 0kts
13-Sep-20 17:17 32.730271 -117.176132 287 26ft 11kts
13-Sep-20 17:17 32.736955 -117.203927 287 667ft 176kts
13-Sep-20 17:18 32.752876 -117.269279 286 3307ft 235kts
13-Sep-20 17:20 32.708357 -117.324006 150 6971ft 283kts
13-Sep-20 17:20 32.656566 -117.268949 128 9671ft 296kts
13-Sep-20 17:21 32.625133 -117.174595 96 12406ft 328kts
13-Sep-20 17:23 32.613637 -117.045708 94 15674ft 351kts
13-Sep-20 17:23 32.604715 -116.946646 94 17737ft 370kts
13-Sep-20 17:24 32.620395 -116.822357 76 20186ft 388kts
13-Sep-20 17:25 32.638301 -116.692291 83 22452ft 404kts
13-Sep-20 17:26 32.651518 -116.556156 82 22971ft 405kts
13-Sep-20 17:27 32.664569 -116.421325 82 22972ft 408kts
13-Sep-20 17:28 32.677589 -116.285354 83 22923ft 410kts
13-Sep-20 17:29 32.690422 -116.149716 83 22857ft 412kts
13-Sep-20 17:30 32.703120 -116.013508 83 22853ft 411kts
13-Sep-20 17:31 32.715473 -115.878013 83 22854ft 411kts
13-Sep-20 17:32 32.728107 -115.740409 83 24344ft 422kts
13-Sep-20 17:33 32.741328 -115.594572 82 26323ft 435kts
13-Sep-20 17:34 32.750729 -115.444497 87 28120ft 447kts
13-Sep-20 17:35 32.754113 -115.292726 86 29747ft 458kts
13-Sep-20 17:36 32.757627 -115.139992 86 31297ft 465kts
13-Sep-20 17:37 32.760933 -114.985857 85 33175ft 460kts
13-Sep-20 17:38 32.763874 -114.833756 84 34830ft 457kts
13-Sep-20 17:39 32.766900 -114.676326 85 34869ft 466kts
13-Sep-20 17:40 32.769344 -114.520618 85 34872ft 464kts
13-Sep-20 17:41 32.771552 -114.358630 85 33788ft 465kts
13-Sep-20 17:42 32.773537 -114.202529 87 31232ft 470kts
13-Sep-20 17:43 32.775352 -114.035825 89 28215ft 480kts
13-Sep-20 17:44 32.790505 -113.869701 80 25039ft 451kts
13-Sep-20 17:45 32.810011 -113.734515 80 24879ft 391kts
13-Sep-20 17:46 32.829454 -113.597040 80 24878ft 440kts
13-Sep-20 17:47 32.849430 -113.455457 80 24885ft 435kts
13-Sep-20 17:48 32.869513 -113.311939 81 24880ft 435kts
13-Sep-20 17:49 32.890033 -113.164053 81 24880ft 435kts
13-Sep-20 17:50 32.909784 -113.020337 81 24881ft 435kts
13-Sep-20 17:51 32.929783 -112.873510 80 24881ft 430kts
13-Sep-20 17:52 32.949085 -112.725087 86 24882ft 427kts
13-Sep-20 17:53 32.922379 -112.585966 113 24883ft 428kts
13-Sep-20 17:54 32.872769 -112.456854 115 24882ft 428kts
13-Sep-20 17:55 32.822746 -112.327207 115 24880ft 428kts
13-Sep-20 17:56 32.769453 -112.189605 115 24909ft 428kts
13-Sep-20 17:57 32.715500 -112.050893 115 24343ft 430kts
13-Sep-20 17:58 32.661198 -111.911810 116 19784ft 427kts
13-Sep-20 17:59 32.611823 -111.785923 116 17170ft 378kts
13-Sep-20 18:00 32.567181 -111.672552 116 14895ft 342kts
13-Sep-20 18:01 32.514222 -111.573259 128 12690ft 337kts
13-Sep-20 18:02 32.460516 -111.488670 127 12011ft 291kts
13-Sep-20 18:03 32.410480 -111.409515 127 12012ft 287kts
13-Sep-20 18:04 32.365409 -111.338350 128 12020ft 257kts
13-Sep-20 18:05 32.330810 -111.263120 110 12068ft 265kts
13-Sep-20 18:06 32.307458 -111.179993 109 11317ft 253kts
13-Sep-20 18:07 32.298211 -111.100484 62 10618ft 235kts
13-Sep-20 18:08 32.353695 -111.086312 320 9220ft 238kts
13-Sep-20 18:09 32.380343 -111.160163 284 7202ft 249kts
13-Sep-20 18:10 32.374840 -111.237165 213 6016ft 208kts
13-Sep-20 18:12 32.325620 -111.208333 112 6020ft 199kts
13-Sep-20 18:12 32.305697 -111.159403 135 6031ft 197kts
13-Sep-20 18:13 32.267489 -111.116740 135 6034ft 186kts
13-Sep-20 18:14 32.232770 -111.076157 134 5617ft 153kts
13-Sep-20 18:15 32.202827 -111.040991 134 4748ft 156kts
13-Sep-20 18:16 32.171730 -111.005408 133 3996ft 150kts
13-Sep-20 18:17 32.142837 -110.970881 131 3199ft 146kts
13-Sep-20 18:18 32.114020 -110.936864 134 2604ft 111kts
13-Sep-20 18:19 32.107179 -110.927477 45 2604ft 5kts
13-Sep-20 18:20 32.107308 -110.927327 43 2604ft 0kts
13-Sep-20 18:21 32.108436 -110.927992 297 2604ft 11kts
13-Sep-20 18:22 32.111013 -110.930893 315 2604ft 16kts
13-Sep-20 18:23 32.114708 -110.935220 315 2604ft 18kts
13-Sep-20 18:24 32.117568 -110.938568 315 2604ft 11kts
13-Sep-20 18:25 32.119707 -110.939460 344 2604ft 6kts
13-Sep-20 18:26 32.120426 -110.939060 33 2604ft 0kts
13-Sep-20 18:27 32.120426 -110.939060 33 2604ft 0kts
13-Sep-20 18:28 32.120426 -110.939060 33 2604ft 0kts
13-Sep-20 18:29 32.120426 -110.939060 33 2604ft 0kts
13-Sep-20 18:30 32.120426 -110.939060 33 2604ft 0kts
13-Sep-20 18:31 32.120426 -110.939060 33 2604ft 0kts
13-Sep-20 18:32 32.120426 -110.939060 33 2604ft 0kts
13-Sep-20 18:33 32.120426 -110.939060 33 2604ft 0kts

Navigation Log

Ident Type
Flight plan parsing failed, navigation log unavailable